Japan Airlines Virtual Airport Information Service

Miami International Airport

ICAO: KMIA Country: United States
Latitude: 25.7932 Longitude: -80.2905
Latest Arrival : BAW207 (EGLL-KMIA) Latest Departure : AAL1028 (KMIA-TNCA)


WX CaptureLIVE
Data provided by noaa.gov | Fetched at 07:10:41

METAR : KMIA 090653Z 30003KT 10SM FEW075 BKN120 OVC250 28/25 A2994 RMK AO2 SLP140 T02830250

TAF : KMIA 090537Z 0906/1012 VRB05KT P6SM SCT020 BKN050 BKN250 FM091700 17008KT P6SM SCT035 SCT200 PROB30 0918/0924 6SM TSRA SCT025 BKN035CB FM100100 VRB04KT P6SM FEW025 SCT150


Runway Data for KMIA
Data provided by openaviationdata.com

Runway ID Mag Var Hdg Length Elevation Surface ILS Freq ILS Id ILS Slope
08L -5 92° 8595 ft 8 ft Concrete 109.3 IROY 0
08R -5 92° 10498 ft 8 ft Asphalt 110.3 IMFA 3
9 -5 92° 12994 ft 8 ft Concrete 110.9 IBUL 3
12 -5 124° 9357 ft 8 ft Concrete 108.9 IGEM 3
26L -5 272° 10498 ft 8 ft Asphalt 109.1 IVIN 3
26R -5 272° 8595 ft 8 ft Concrete 109.3 ICNV 0
27 -5 272° 12994 ft 8 ft Concrete 109.5 IMIA 3
30 -5 304° 9357 ft 8 ft Concrete 111.7 IDCX 3

Miami International Airport, United States
Use only for reference purposes



Not for navigational purposes.